createdAt,value
2019-05-01T00:03:56.322Z,20.70
2019-05-01T00:07:58.417Z,20.95
2019-05-01T00:12:00.107Z,20.17
2019-05-01T00:16:01.892Z,22.37
2019-05-01T00:20:03.943Z,22.25
2019-05-01T00:24:05.774Z,21.48
2019-05-01T00:28:07.764Z,21.20
2019-05-01T00:32:09.571Z,21.15
2019-05-01T00:36:11.439Z,23.10
2019-05-01T00:40:13.909Z,24.05
2019-05-01T00:44:15.796Z,21.97
2019-05-01T00:48:17.694Z,22.17
2019-05-01T00:52:19.841Z,23.55
2019-05-01T00:56:21.697Z,24.25
2019-05-01T01:00:23.485Z,23.07
2019-05-01T01:04:25.180Z,22.13
2019-05-01T01:08:26.866Z,21.45
2019-05-01T01:12:28.584Z,22.82
2019-05-01T01:16:30.347Z,23.45
2019-05-01T01:20:32.134Z,23.05
2019-05-01T01:24:33.822Z,22.20
2019-05-01T01:28:36.021Z,22.65
2019-05-01T01:32:37.762Z,21.87
2019-05-01T01:36:39.448Z,21.85
2019-05-01T01:40:41.549Z,22.93
2019-05-01T01:44:43.527Z,22.37
2019-05-01T01:48:46.107Z,23.45
2019-05-01T01:52:48.123Z,24.63
2019-05-01T01:57:26.944Z,23.90
2019-05-01T02:01:29.341Z,22.80
2019-05-01T02:05:31.216Z,24.15
2019-05-01T02:09:33.059Z,21.37
2019-05-01T02:13:35.405Z,23.80
2019-05-01T02:17:37.540Z,22.25
2019-05-01T02:21:39.356Z,24.02
2019-05-01T02:25:41.940Z,27.82
2019-05-01T02:29:43.940Z,23.50
2019-05-01T02:33:46.408Z,23.85
2019-05-01T02:37:49.640Z,22.30
2019-05-01T02:41:53.239Z,22.50
2019-05-01T02:45:57.436Z,24.00
2019-05-01T02:50:07.648Z,24.12
2019-05-01T02:54:12.311Z,25.95
2019-05-01T02:58:14.284Z,23.83
2019-05-01T03:02:17.380Z,24.25
2019-05-01T03:06:20.304Z,25.55
2019-05-01T03:10:22.459Z,22.02
2019-05-01T03:14:28.259Z,23.25
2019-05-01T03:18:30.093Z,22.90
2019-05-01T03:22:32.009Z,20.82
2019-05-01T03:26:34.213Z,24.12
2019-05-01T03:30:36.168Z,23.42
2019-05-01T03:34:38.468Z,22.30
2019-05-01T03:38:40.956Z,21.45
2019-05-01T03:42:42.878Z,21.90
2019-05-01T03:46:45.328Z,21.30
2019-05-01T03:50:47.803Z,21.55
2019-05-01T03:54:49.668Z,21.20
2019-05-01T03:58:52.045Z,21.80
2019-05-01T04:02:54.464Z,22.58
2019-05-01T04:06:56.835Z,19.90
2019-05-01T04:10:58.771Z,19.73
2019-05-01T04:15:00.551Z,21.75
2019-05-01T04:19:03.695Z,20.12
2019-05-01T04:23:05.593Z,22.05
2019-05-01T04:27:07.669Z,17.95
2019-05-01T04:31:09.828Z,19.98
2019-05-01T04:35:11.633Z,18.12
2019-05-01T04:39:14.030Z,19.30
2019-05-01T04:43:16.335Z,20.23
2019-05-01T04:47:18.491Z,20.30
2019-05-01T04:51:21.028Z,20.37
2019-05-01T04:55:23.769Z,22.35
2019-05-01T04:59:25.856Z,25.37
2019-05-01T05:03:27.981Z,24.12
2019-05-01T05:07:30.456Z,23.12
2019-05-01T05:11:32.290Z,21.23
2019-05-01T05:15:35.199Z,20.30
2019-05-01T05:19:38.079Z,21.62
2019-05-01T05:23:40.014Z,21.52
2019-05-01T05:27:44.123Z,24.87
2019-05-01T05:31:47.378Z,19.15
2019-05-01T05:35:52.814Z,18.00
2019-05-01T05:39:56.462Z,19.32
2019-05-01T05:43:59.081Z,18.65
2019-05-01T05:48:01.367Z,17.60
2019-05-01T05:52:03.277Z,17.77
2019-05-01T05:56:07.384Z,15.40
2019-05-01T06:00:09.590Z,17.10
2019-05-01T06:04:15.464Z,18.02
2019-05-01T06:08:19.668Z,19.02
2019-05-01T06:12:22.850Z,20.95
2019-05-01T06:16:25.366Z,21.62
2019-05-01T06:20:27.668Z,20.20
2019-05-01T06:24:30.236Z,20.12
2019-05-01T06:28:32.762Z,21.75
2019-05-01T06:32:34.779Z,18.50
2019-05-01T06:36:36.700Z,20.88
2019-05-01T06:40:39.465Z,21.60
2019-05-01T06:44:44.260Z,21.10
2019-05-01T06:48:48.818Z,24.30
2019-05-01T06:52:51.860Z,26.75
2019-05-01T06:56:55.128Z,26.52
2019-05-01T07:00:57.034Z,28.20
2019-05-01T07:05:01.020Z,24.45
2019-05-01T07:09:06.931Z,25.95
2019-05-01T07:13:08.393Z,29.18
2019-05-01T07:17:13.650Z,27.32
2019-05-01T07:21:14.479Z,25.23
2019-05-01T07:25:17.456Z,28.25
2019-05-01T07:29:19.764Z,27.77
2019-05-01T07:33:22.408Z,30.08
2019-05-01T07:37:25.998Z,28.35
2019-05-01T07:41:28.595Z,27.60
2019-05-01T07:45:30.917Z,31.02
2019-05-01T07:50:05.953Z,24.85
2019-05-01T07:54:08.960Z,28.45
2019-05-01T07:58:15.819Z,27.62
2019-05-01T08:02:15.049Z,24.07
2019-05-01T08:06:21.853Z,27.10
2019-05-01T08:10:25.470Z,22.82
2019-05-01T08:14:25.275Z,26.37
2019-05-01T08:18:27.882Z,26.68
2019-05-01T08:22:32.057Z,26.45
2019-05-01T08:26:35.374Z,21.40
2019-05-01T08:30:37.273Z,26.00
2019-05-01T08:34:48.737Z,26.97
2019-05-01T08:38:43.517Z,22.05
2019-05-01T08:42:45.493Z,25.08
2019-05-01T08:46:51.069Z,24.18
2019-05-01T08:50:54.502Z,22.02
2019-05-01T08:54:56.045Z,23.38
2019-05-01T08:58:58.593Z,24.05
2019-05-01T09:03:08.139Z,23.47
2019-05-01T09:07:04.843Z,27.87
2019-05-01T09:11:06.719Z,22.95
2019-05-01T09:15:12.859Z,27.27
2019-05-01T09:19:13.727Z,23.20
2019-05-01T09:23:16.150Z,23.90
2019-05-01T09:27:18.827Z,26.05
2019-05-01T09:31:21.010Z,25.05
2019-05-01T09:35:22.843Z,25.25
2019-05-01T09:39:24.844Z,27.10
2019-05-01T09:43:30.890Z,28.52
2019-05-01T09:47:30.906Z,28.52
2019-05-01T09:51:32.963Z,29.20
2019-05-01T09:55:34.861Z,26.05
2019-05-01T09:59:37.768Z,26.25
2019-05-01T10:03:39.699Z,27.55
2019-05-01T10:07:41.602Z,26.20
2019-05-01T10:11:43.861Z,27.37
2019-05-01T10:15:45.835Z,30.43
2019-05-01T10:19:50.098Z,35.13
2019-05-01T10:23:52.955Z,27.85
2019-05-01T10:27:55.071Z,29.90
2019-05-01T10:31:57.315Z,30.72
2019-05-01T10:35:59.786Z,28.87
2019-05-01T10:40:02.897Z,29.82
2019-05-01T10:44:05.310Z,30.43
2019-05-01T10:48:07.183Z,32.50
2019-05-01T10:52:14.330Z,31.95
2019-05-01T10:56:12.877Z,31.48
2019-05-01T11:00:15.410Z,29.75
2019-05-01T11:04:17.571Z,32.73
2019-05-01T11:08:19.927Z,33.25
2019-05-01T11:12:22.115Z,31.12
2019-05-01T11:16:24.007Z,33.53
2019-05-01T11:20:26.675Z,33.00
2019-05-01T11:24:28.664Z,33.73
2019-05-01T11:28:30.716Z,37.05
2019-05-01T11:32:32.930Z,37.60
2019-05-01T11:36:35.416Z,37.95
2019-05-01T11:40:38.114Z,38.53
2019-05-01T11:44:40.537Z,38.40
2019-05-01T11:48:44.415Z,39.10
2019-05-01T11:52:46.652Z,36.83
2019-05-01T11:56:48.640Z,35.03
2019-05-01T12:00:51.118Z,39.00
2019-05-01T12:04:53.307Z,36.93
2019-05-01T12:08:55.133Z,35.45
2019-05-01T12:12:57.321Z,36.90
2019-05-01T12:16:59.227Z,35.95
2019-05-01T12:21:01.051Z,40.23
2019-05-01T12:25:03.976Z,39.10
2019-05-01T12:29:06.150Z,37.78
2019-05-01T12:33:08.187Z,37.95
2019-05-01T12:37:10.182Z,36.53
2019-05-01T12:41:12.680Z,36.65
2019-05-01T12:45:15.360Z,41.10
2019-05-01T12:49:17.220Z,37.73
2019-05-01T12:53:19.752Z,39.20
2019-05-01T12:57:21.650Z,38.35
2019-05-01T13:01:23.601Z,38.55
2019-05-01T13:05:25.431Z,37.17
2019-05-01T13:09:27.718Z,39.03
2019-05-01T13:13:29.715Z,43.10
2019-05-01T13:17:32.294Z,42.70
2019-05-01T13:21:34.561Z,43.05
2019-05-01T13:25:36.744Z,45.70
2019-05-01T13:29:38.578Z,47.65
2019-05-01T13:33:40.461Z,45.88
2019-05-01T13:37:42.933Z,44.63
2019-05-01T13:41:45.179Z,48.45
2019-05-01T13:45:47.297Z,48.45
2019-05-01T13:49:49.159Z,44.30
2019-05-01T13:53:51.387Z,49.00
2019-05-01T13:57:53.216Z,47.83
2019-05-01T14:01:55.279Z,48.08
2019-05-01T14:05:57.075Z,44.93
2019-05-01T14:09:59.243Z,46.08
2019-05-01T14:14:01.436Z,51.13
2019-05-01T14:18:04.267Z,48.30
2019-05-01T14:22:06.487Z,43.25
2019-05-01T14:26:08.429Z,46.92
2019-05-01T14:30:11.205Z,45.60
2019-05-01T14:34:13.802Z,46.33
2019-05-01T14:38:15.820Z,48.85
2019-05-01T14:42:17.763Z,50.83
2019-05-01T14:46:19.753Z,47.62
2019-05-01T14:50:22.206Z,46.45
2019-05-01T14:54:24.549Z,47.78
2019-05-01T14:58:26.442Z,48.92
2019-05-01T15:02:28.450Z,47.80
2019-05-01T15:06:30.569Z,46.42
2019-05-01T15:10:32.525Z,76.40
2019-05-01T15:14:34.436Z,135.85
2019-05-01T15:18:36.595Z,58.35
2019-05-01T15:22:38.812Z,45.60
2019-05-01T15:26:40.696Z,46.73
2019-05-01T15:30:42.586Z,44.63
2019-05-01T15:34:44.876Z,55.88
2019-05-01T15:38:46.740Z,42.90
2019-05-01T15:42:48.593Z,41.85
2019-05-01T15:46:50.469Z,41.37
2019-05-01T15:50:52.358Z,41.98
2019-05-01T15:54:54.393Z,42.53
2019-05-01T15:58:56.816Z,44.45
2019-05-01T16:02:58.713Z,40.83
2019-05-01T16:07:01.287Z,40.28
2019-05-01T16:11:03.586Z,41.35
2019-05-01T16:15:07.049Z,41.75
2019-05-01T16:19:08.957Z,45.80
2019-05-01T16:23:11.130Z,42.58
2019-05-01T16:27:13.491Z,42.88
2019-05-01T16:31:15.677Z,40.55
2019-05-01T16:35:17.838Z,39.45
2019-05-01T16:39:20.187Z,40.83
2019-05-01T16:43:22.074Z,38.25
2019-05-01T16:47:24.335Z,39.10
2019-05-01T16:51:26.338Z,36.85
2019-05-01T16:55:28.233Z,36.88
2019-05-01T16:59:30.096Z,34.27
2019-05-01T17:03:32.078Z,33.38
2019-05-01T17:07:33.976Z,33.08
2019-05-01T17:11:35.841Z,32.20
2019-05-01T17:15:38.137Z,33.18
2019-05-01T17:19:40.322Z,34.00
2019-05-01T17:23:42.150Z,32.33
2019-05-01T17:27:43.994Z,31.48
2019-05-01T17:31:45.886Z,33.00
2019-05-01T17:35:48.660Z,29.65
2019-05-01T17:39:50.481Z,30.50
2019-05-01T17:43:52.324Z,29.82
2019-05-01T17:47:57.982Z,31.52
2019-05-01T17:51:58.125Z,30.23
2019-05-01T17:56:00.020Z,31.50
2019-05-01T18:00:02.475Z,31.82
2019-05-01T18:04:04.316Z,32.90
2019-05-01T18:08:06.129Z,32.58
2019-05-01T18:12:08.027Z,32.85
2019-05-01T18:16:09.985Z,32.50
2019-05-01T18:20:11.919Z,31.65
2019-05-01T18:24:14.278Z,30.75
2019-05-01T18:28:17.167Z,31.60
2019-05-01T18:32:19.102Z,33.45
2019-05-01T18:36:24.547Z,31.33
2019-05-01T18:40:24.871Z,32.38
2019-05-01T18:44:27.009Z,32.08
2019-05-01T18:48:28.782Z,33.70
2019-05-01T18:52:30.638Z,32.15
2019-05-01T18:56:32.868Z,33.13
2019-05-01T19:00:35.138Z,31.87
2019-05-01T19:04:37.832Z,33.13
2019-05-01T19:08:39.711Z,32.88
2019-05-01T19:12:41.642Z,32.38
2019-05-01T19:16:45.162Z,33.75
2019-05-01T19:20:58.806Z,33.60
2019-05-01T19:24:51.533Z,34.60
2019-05-01T19:28:53.895Z,35.88
2019-05-01T19:32:55.869Z,34.88
2019-05-01T19:36:57.929Z,36.30
2019-05-01T19:41:18.629Z,35.10
2019-05-01T19:45:39.254Z,36.55
2019-05-01T19:50:06.476Z,37.13
2019-05-01T19:54:23.108Z,35.65
2019-05-01T19:58:45.677Z,35.65
2019-05-01T20:03:06.395Z,34.38
2019-05-01T20:07:27.314Z,35.60
2019-05-01T20:11:47.873Z,37.08
2019-05-01T20:16:08.462Z,38.25
2019-05-01T20:20:29.164Z,37.10
2019-05-01T20:24:50.607Z,39.13
2019-05-01T20:29:11.038Z,38.65
2019-05-01T20:33:33.457Z,38.60
2019-05-01T20:37:54.457Z,38.75
2019-05-01T20:42:15.441Z,36.85
2019-05-01T20:46:36.640Z,37.30
2019-05-01T20:50:58.769Z,34.83
2019-05-01T20:55:20.140Z,33.75
2019-05-01T20:59:40.974Z,34.95
2019-05-01T21:04:02.207Z,35.13
2019-05-01T21:08:23.228Z,37.83
2019-05-01T21:12:44.393Z,35.13
2019-05-01T21:17:09.469Z,37.13
2019-05-01T21:21:28.581Z,36.88
2019-05-01T21:25:50.655Z,40.12
2019-05-01T21:30:13.710Z,37.17
2019-05-01T21:34:34.475Z,40.88
2019-05-01T21:38:56.463Z,39.27
2019-05-01T21:43:17.752Z,40.92
2019-05-01T21:47:39.187Z,40.23
2019-05-01T21:52:03.765Z,39.53
2019-05-01T21:56:24.206Z,38.02
2019-05-01T22:00:45.856Z,38.58
2019-05-01T22:05:06.502Z,39.92
2019-05-01T22:09:27.031Z,38.25
2019-05-01T22:13:48.190Z,34.78
2019-05-01T22:18:10.826Z,37.93
2019-05-01T22:22:31.884Z,37.15
2019-05-01T22:26:52.455Z,35.17
2019-05-01T22:31:16.822Z,40.55
2019-05-01T22:35:35.561Z,37.67
2019-05-01T22:39:56.315Z,36.05
2019-05-01T22:44:18.050Z,39.50
2019-05-01T22:48:40.021Z,36.88
2019-05-01T22:53:00.377Z,33.20
2019-05-01T22:57:21.130Z,35.55
2019-05-01T23:01:42.446Z,32.08
2019-05-01T23:06:06.358Z,31.17
2019-05-01T23:10:25.752Z,34.95
2019-05-01T23:14:47.040Z,33.42
2019-05-01T23:19:07.759Z,37.20
2019-05-01T23:23:28.558Z,33.78
2019-05-01T23:27:49.839Z,34.35
2019-05-01T23:32:10.303Z,34.33
2019-05-01T23:36:30.800Z,35.88
2019-05-01T23:40:52.970Z,35.70
2019-05-01T23:45:14.185Z,35.75
2019-05-01T23:49:34.996Z,34.40
2019-05-01T23:53:55.778Z,35.55
2019-05-01T23:58:16.424Z,34.73
